createdAt,value
2022-09-24T00:00:35.642Z,12.65
2022-09-24T00:01:35.896Z,12.65
2022-09-24T00:02:35.664Z,12.64
2022-09-24T00:03:35.622Z,12.64
2022-09-24T00:04:35.600Z,12.64
2022-09-24T00:05:35.585Z,12.64
2022-09-24T00:06:35.581Z,12.64
2022-09-24T00:07:35.565Z,12.62
2022-09-24T00:08:35.566Z,12.62
2022-09-24T00:09:35.644Z,12.60
2022-09-24T00:10:35.527Z,12.60
2022-09-24T00:11:35.628Z,12.59
2022-09-24T00:12:35.507Z,12.59
2022-09-24T00:13:35.517Z,12.57
2022-09-24T00:14:35.499Z,12.57
2022-09-24T00:15:35.477Z,12.56
2022-09-24T00:16:35.532Z,12.54
2022-09-24T00:17:35.487Z,12.54
2022-09-24T00:18:35.449Z,12.54
2022-09-24T00:19:35.603Z,12.53
2022-09-24T00:20:35.431Z,12.53
2022-09-24T00:21:35.414Z,12.52
2022-09-24T00:22:35.403Z,12.52
2022-09-24T00:23:35.407Z,12.50
2022-09-24T00:24:35.410Z,12.49
2022-09-24T00:25:36.378Z,12.49
2022-09-24T00:26:35.359Z,12.49
2022-09-24T00:27:35.348Z,12.46
2022-09-24T00:28:35.337Z,12.45
2022-09-24T00:29:35.381Z,12.45
2022-09-24T00:30:35.317Z,12.45
2022-09-24T00:31:35.359Z,12.42
2022-09-24T00:32:35.293Z,12.42
2022-09-24T00:33:35.290Z,12.41
2022-09-24T00:34:35.282Z,12.41
2022-09-24T00:35:35.261Z,12.39
2022-09-24T00:36:35.241Z,12.39
2022-09-24T00:37:35.281Z,12.39
2022-09-24T00:38:35.252Z,12.38
2022-09-24T00:39:35.231Z,12.38
2022-09-24T00:40:35.349Z,12.37
2022-09-24T00:41:35.201Z,12.37
2022-09-24T00:42:35.182Z,12.35
2022-09-24T00:43:35.193Z,12.35
2022-09-24T00:44:35.166Z,12.35
2022-09-24T00:45:35.183Z,12.35
2022-09-24T00:46:35.240Z,12.34
2022-09-24T00:47:35.147Z,12.34
2022-09-24T00:48:35.115Z,12.32
2022-09-24T00:49:35.124Z,12.32
2022-09-24T00:50:35.164Z,12.29
2022-09-24T00:51:35.124Z,12.31
2022-09-24T00:52:35.089Z,12.29
2022-09-24T00:53:35.085Z,12.28
2022-09-24T00:54:35.065Z,12.28
2022-09-24T00:55:35.046Z,12.27
2022-09-24T00:56:35.067Z,12.23
2022-09-24T00:57:35.024Z,12.27
2022-09-24T00:58:35.018Z,12.24
2022-09-24T00:59:35.025Z,12.23
2022-09-24T01:00:35.026Z,12.23
2022-09-24T01:01:35.101Z,12.23
2022-09-24T01:02:35.019Z,12.20
2022-09-24T01:03:34.957Z,12.20
2022-09-24T01:04:34.955Z,12.19
2022-09-24T01:05:34.941Z,12.17
2022-09-24T01:06:34.926Z,12.17
2022-09-24T01:07:34.929Z,12.17
2022-09-24T01:08:34.907Z,12.16
2022-09-24T01:09:34.915Z,12.17
2022-09-24T01:10:34.881Z,12.14
2022-09-24T01:11:34.890Z,12.14
2022-09-24T01:12:34.859Z,12.13
2022-09-24T01:13:34.856Z,12.12
2022-09-24T01:14:34.849Z,12.12
2022-09-24T01:15:34.831Z,12.12
2022-09-24T01:16:34.904Z,12.09
2022-09-24T01:17:34.811Z,12.09
2022-09-24T01:18:34.790Z,12.07
2022-09-24T01:19:34.800Z,12.07
2022-09-24T01:20:34.771Z,12.04
2022-09-24T01:21:34.771Z,12.04
2022-09-24T01:22:34.751Z,12.02
2022-09-24T01:23:34.764Z,12.01
2022-09-24T01:24:34.732Z,11.96
2022-09-24T01:25:34.740Z,11.96
2022-09-24T01:26:34.713Z,11.96
2022-09-24T01:27:34.702Z,11.95
2022-09-24T01:28:34.704Z,11.91
2022-09-24T01:29:34.686Z,11.90
2022-09-24T01:30:34.662Z,11.88
2022-09-24T01:31:34.708Z,11.88
2022-09-24T01:32:34.642Z,11.86
2022-09-24T01:33:34.653Z,11.86
2022-09-24T01:34:34.624Z,11.85
2022-09-24T01:35:34.615Z,11.82
2022-09-24T01:36:34.594Z,11.83
2022-09-24T01:37:34.593Z,11.82
2022-09-24T01:38:34.593Z,11.82
2022-09-24T01:39:34.576Z,11.82
2022-09-24T01:40:34.653Z,11.80
2022-09-24T01:41:34.545Z,11.80
2022-09-24T01:42:34.535Z,11.80
2022-09-24T01:43:34.548Z,11.79
2022-09-24T01:44:34.515Z,11.80
2022-09-24T01:45:34.508Z,11.79
2022-09-24T01:46:34.542Z,11.78
2022-09-24T01:47:35.204Z,11.76
2022-09-24T01:48:34.490Z,11.78
2022-09-24T01:49:34.456Z,11.75
2022-09-24T01:50:34.455Z,11.75
2022-09-24T01:51:34.476Z,11.72
2022-09-24T01:52:34.435Z,11.72
2022-09-24T01:53:34.499Z,11.70
2022-09-24T01:54:34.418Z,11.69
2022-09-24T01:55:34.388Z,11.67
2022-09-24T01:56:34.430Z,11.65
2022-09-24T01:57:34.385Z,11.61
2022-09-24T01:58:34.378Z,11.61
2022-09-24T01:59:34.407Z,11.57
2022-09-24T02:00:34.371Z,11.57
2022-09-24T02:01:34.373Z,11.55
2022-09-24T02:02:34.350Z,11.55
2022-09-24T02:03:34.316Z,11.54
2022-09-24T02:04:34.300Z,11.52
2022-09-24T02:05:34.280Z,11.51
2022-09-24T02:06:34.269Z,11.51
2022-09-24T02:07:34.260Z,11.51
2022-09-24T02:08:34.280Z,11.51
2022-09-24T02:09:34.244Z,11.51
2022-09-24T02:10:34.231Z,11.49
2022-09-24T02:11:34.224Z,11.49
2022-09-24T02:12:34.235Z,11.49
2022-09-24T02:13:34.230Z,11.49
2022-09-24T02:14:34.192Z,11.47
2022-09-24T02:15:34.173Z,11.47
2022-09-24T02:16:34.226Z,11.49
2022-09-24T02:17:34.153Z,11.47
2022-09-24T02:18:34.163Z,11.46
2022-09-24T02:19:34.206Z,11.46
2022-09-24T02:20:34.134Z,11.44
2022-09-24T02:21:34.101Z,11.44
2022-09-24T02:22:34.102Z,11.43
2022-09-24T02:23:34.104Z,11.44
2022-09-24T02:24:34.081Z,11.42
2022-09-24T02:25:34.063Z,11.42
2022-09-24T02:26:34.063Z,11.42
2022-09-24T02:27:34.043Z,11.40
2022-09-24T02:28:34.100Z,11.37
2022-09-24T02:29:34.025Z,11.37
2022-09-24T02:30:34.030Z,11.37
2022-09-24T02:31:34.050Z,11.36
2022-09-24T02:32:33.995Z,11.36
2022-09-24T02:33:33.983Z,11.36
2022-09-24T02:34:33.974Z,11.35
2022-09-24T02:35:33.955Z,11.33
2022-09-24T02:36:34.135Z,11.35
2022-09-24T02:37:33.938Z,11.32
2022-09-24T02:38:34.027Z,11.33
2022-09-24T02:39:33.937Z,11.32
2022-09-24T02:40:33.953Z,11.32
2022-09-24T02:41:33.898Z,11.32
2022-09-24T02:42:33.876Z,11.29
2022-09-24T02:43:33.882Z,11.32
2022-09-24T02:44:33.923Z,11.32
2022-09-24T02:45:33.866Z,11.32
2022-09-24T02:46:33.920Z,11.32
2022-09-24T02:47:33.827Z,11.29
2022-09-24T02:48:33.838Z,11.32
2022-09-24T02:49:33.829Z,11.29
2022-09-24T02:50:33.799Z,11.29
2022-09-24T02:51:33.778Z,11.29
2022-09-24T02:52:33.818Z,11.32
2022-09-24T02:53:33.767Z,11.32
2022-09-24T02:54:33.849Z,11.32
2022-09-24T02:55:33.737Z,11.29
2022-09-24T02:56:33.729Z,11.29
2022-09-24T02:57:33.708Z,11.29
2022-09-24T02:58:33.730Z,11.29
2022-09-24T02:59:33.759Z,11.29
2022-09-24T03:00:33.688Z,11.29
2022-09-24T03:01:33.804Z,11.29
2022-09-24T03:02:33.811Z,11.28
2022-09-24T03:03:33.859Z,11.29
2022-09-24T03:04:34.088Z,11.32
2022-09-24T03:05:33.630Z,11.29
2022-09-24T03:06:33.625Z,11.28
2022-09-24T03:07:33.615Z,11.29
2022-09-24T03:08:33.612Z,11.32
2022-09-24T03:09:33.580Z,11.29
2022-09-24T03:10:33.662Z,11.28
2022-09-24T03:11:33.561Z,11.29
2022-09-24T03:12:33.554Z,11.28
2022-09-24T03:13:33.552Z,11.28
2022-09-24T03:14:33.539Z,11.29
2022-09-24T03:15:33.523Z,11.28
2022-09-24T03:16:33.634Z,11.28
2022-09-24T03:17:33.521Z,11.28
2022-09-24T03:18:33.484Z,11.28
2022-09-24T03:19:33.487Z,11.28
2022-09-24T03:20:33.474Z,11.28
2022-09-24T03:21:33.457Z,11.29
2022-09-24T03:22:33.444Z,11.29
2022-09-24T03:23:33.526Z,11.28
2022-09-24T03:24:33.423Z,11.28
2022-09-24T03:25:33.416Z,11.27
2022-09-24T03:26:33.408Z,11.27
2022-09-24T03:27:33.384Z,11.25
2022-09-24T03:28:33.395Z,11.25
2022-09-24T03:29:33.367Z,11.25
2022-09-24T03:30:33.356Z,11.24
2022-09-24T03:31:33.396Z,11.24
2022-09-24T03:32:33.345Z,11.22
2022-09-24T03:33:33.327Z,11.22
2022-09-24T03:34:33.315Z,11.22
2022-09-24T03:35:33.305Z,11.21
2022-09-24T03:36:33.294Z,11.21
2022-09-24T03:37:33.287Z,11.21
2022-09-24T03:38:33.286Z,11.19
2022-09-24T03:39:33.255Z,11.19
2022-09-24T03:40:33.329Z,11.19
2022-09-24T03:41:33.236Z,11.21
2022-09-24T03:42:33.226Z,11.19
2022-09-24T03:43:33.248Z,11.19
2022-09-24T03:44:33.212Z,11.21
2022-09-24T03:45:33.198Z,11.21
2022-09-24T03:46:33.221Z,11.19
2022-09-24T03:47:33.178Z,11.21
2022-09-24T03:48:33.188Z,11.21
2022-09-24T03:49:33.158Z,11.21
2022-09-24T03:50:33.218Z,11.22
2022-09-24T03:51:33.128Z,11.22
2022-09-24T03:52:33.131Z,11.22
2022-09-24T03:53:33.509Z,11.22
2022-09-24T03:54:33.101Z,11.24
2022-09-24T03:55:33.162Z,11.22
2022-09-24T03:56:33.098Z,11.24
2022-09-24T03:57:33.089Z,11.24
2022-09-24T03:58:33.059Z,11.25
2022-09-24T03:59:33.039Z,11.25
2022-09-24T04:00:35.373Z,11.25
2022-09-24T04:01:34.080Z,11.25
2022-09-24T04:02:33.090Z,11.27
2022-09-24T04:03:33.000Z,11.28
2022-09-24T04:04:32.991Z,11.25
2022-09-24T04:05:32.983Z,11.28
2022-09-24T04:06:32.981Z,11.28
2022-09-24T04:07:32.982Z,11.28
2022-09-24T04:08:32.961Z,11.29
2022-09-24T04:09:32.932Z,11.29
2022-09-24T04:10:32.929Z,11.29
2022-09-24T04:11:32.964Z,11.32
2022-09-24T04:12:32.933Z,11.32
2022-09-24T04:13:32.914Z,11.35
2022-09-24T04:14:32.882Z,11.35
2022-09-24T04:15:32.882Z,11.33
2022-09-24T04:16:32.913Z,11.35
2022-09-24T04:17:32.873Z,11.35
2022-09-24T04:18:36.995Z,11.36
2022-09-24T04:19:33.844Z,11.36
2022-09-24T04:20:32.825Z,11.36
2022-09-24T04:21:32.815Z,11.36
2022-09-24T04:22:32.828Z,11.37
2022-09-24T04:23:32.807Z,11.37
2022-09-24T04:24:32.793Z,11.36
2022-09-24T04:25:32.785Z,11.37
2022-09-24T04:26:32.765Z,11.37
2022-09-24T04:27:32.778Z,11.37
2022-09-24T04:28:32.766Z,11.37
2022-09-24T04:29:32.736Z,11.37
2022-09-24T04:30:32.716Z,11.37
2022-09-24T04:31:32.874Z,11.39
2022-09-24T04:32:32.726Z,11.37
2022-09-24T04:33:32.706Z,11.39
2022-09-24T04:34:32.677Z,11.39
2022-09-24T04:35:32.676Z,11.39
2022-09-24T04:36:32.645Z,11.39
2022-09-24T04:37:32.665Z,11.40
2022-09-24T04:38:32.628Z,11.39
2022-09-24T04:39:32.617Z,11.42
2022-09-24T04:40:32.671Z,11.40
2022-09-24T04:41:32.587Z,11.42
2022-09-24T04:42:32.586Z,11.43
2022-09-24T04:43:32.569Z,11.43
2022-09-24T04:44:32.589Z,11.44
2022-09-24T04:45:32.574Z,11.43
2022-09-24T04:46:32.573Z,11.44
2022-09-24T04:47:32.540Z,11.44
2022-09-24T04:48:32.519Z,11.46
2022-09-24T04:49:32.518Z,11.47
2022-09-24T04:50:32.500Z,11.49
2022-09-24T04:51:32.480Z,11.49
2022-09-24T04:52:32.481Z,11.51
2022-09-24T04:53:32.461Z,11.52
2022-09-24T04:54:32.486Z,11.54
2022-09-24T04:55:32.458Z,11.54
2022-09-24T04:56:32.439Z,11.54
2022-09-24T04:57:32.422Z,11.55
2022-09-24T04:58:32.410Z,11.55
2022-09-24T04:59:32.393Z,11.55
2022-09-24T05:00:32.382Z,11.55
2022-09-24T05:01:32.410Z,11.55
2022-09-24T05:02:32.476Z,11.55
2022-09-24T05:03:32.365Z,11.57
2022-09-24T05:04:32.420Z,11.57
2022-09-24T05:05:32.327Z,11.57
2022-09-24T05:06:32.322Z,11.57
2022-09-24T05:07:32.319Z,11.58
2022-09-24T05:08:32.304Z,11.57
2022-09-24T05:09:32.294Z,11.58
2022-09-24T05:10:32.283Z,11.58
2022-09-24T05:11:32.465Z,11.57
2022-09-24T05:12:32.263Z,11.57
2022-09-24T05:13:32.355Z,11.57
2022-09-24T05:14:32.236Z,11.55
2022-09-24T05:15:32.215Z,11.57
2022-09-24T05:16:32.278Z,11.55
2022-09-24T05:17:32.215Z,11.57
2022-09-24T05:18:32.215Z,11.57
2022-09-24T05:19:32.217Z,11.57
2022-09-24T05:20:32.177Z,11.55
2022-09-24T05:21:32.316Z,11.57
2022-09-24T05:22:32.156Z,11.54
2022-09-24T05:23:32.146Z,11.54
2022-09-24T05:24:32.126Z,11.57
2022-09-24T05:25:32.126Z,11.55
2022-09-24T05:26:32.149Z,11.55
2022-09-24T05:27:32.089Z,11.55
2022-09-24T05:28:32.097Z,11.55
2022-09-24T05:29:32.100Z,11.55
2022-09-24T05:30:32.056Z,11.55
2022-09-24T05:31:32.113Z,11.55
2022-09-24T05:32:32.047Z,11.55
2022-09-24T05:33:32.030Z,11.54
2022-09-24T05:34:32.050Z,11.55
2022-09-24T05:35:31.999Z,11.54
2022-09-24T05:36:32.037Z,11.54
2022-09-24T05:37:32.000Z,11.55
2022-09-24T05:38:31.979Z,11.57
2022-09-24T05:39:34.195Z,11.55
2022-09-24T05:40:32.028Z,11.55
2022-09-24T05:41:31.958Z,11.55
2022-09-24T05:42:31.989Z,11.55
2022-09-24T05:43:31.924Z,11.55
2022-09-24T05:44:31.924Z,11.57
2022-09-24T05:45:32.007Z,11.57
2022-09-24T05:46:31.980Z,11.58
2022-09-24T05:47:32.062Z,11.57
2022-09-24T05:48:31.864Z,11.58
2022-09-24T05:49:32.023Z,11.58
2022-09-24T05:50:31.851Z,11.58
2022-09-24T05:51:31.891Z,11.60
2022-09-24T05:52:31.844Z,11.60
2022-09-24T05:53:31.813Z,11.61
2022-09-24T05:54:31.802Z,11.62
2022-09-24T05:55:32.710Z,11.64
2022-09-24T05:56:31.783Z,11.62
2022-09-24T05:57:31.775Z,11.65
2022-09-24T05:58:31.772Z,11.65
2022-09-24T05:59:31.745Z,11.67
2022-09-24T06:00:31.734Z,11.67
2022-09-24T06:01:31.764Z,11.69
2022-09-24T06:02:31.806Z,11.69
2022-09-24T06:03:31.936Z,11.69
2022-09-24T06:04:31.706Z,11.72
2022-09-24T06:05:31.676Z,11.72
2022-09-24T06:06:31.676Z,11.72
2022-09-24T06:07:31.664Z,11.73
2022-09-24T06:08:31.667Z,11.75
2022-09-24T06:09:31.635Z,11.73
2022-09-24T06:10:31.637Z,11.75
2022-09-24T06:11:33.513Z,11.73
2022-09-24T06:12:31.627Z,11.75
2022-09-24T06:13:31.631Z,11.76
2022-09-24T06:14:31.586Z,11.76
2022-09-24T06:15:31.568Z,11.76
2022-09-24T06:16:31.657Z,11.76
2022-09-24T06:17:31.558Z,11.76
2022-09-24T06:18:31.556Z,11.76
2022-09-24T06:19:31.532Z,11.76
2022-09-24T06:20:31.518Z,11.78
2022-09-24T06:21:31.499Z,11.78
2022-09-24T06:22:31.536Z,11.79
2022-09-24T06:23:31.489Z,11.79
2022-09-24T06:24:31.468Z,11.79
2022-09-24T06:25:31.466Z,11.79
2022-09-24T06:26:31.458Z,11.82
2022-09-24T06:27:31.439Z,11.82
2022-09-24T06:28:31.448Z,11.82
2022-09-24T06:29:31.420Z,11.83
2022-09-24T06:30:31.417Z,11.83
2022-09-24T06:31:31.440Z,11.83
2022-09-24T06:32:31.390Z,11.85
2022-09-24T06:33:31.382Z,11.85
2022-09-24T06:34:31.368Z,11.88
2022-09-24T06:35:31.352Z,11.86
2022-09-24T06:36:31.341Z,11.88
2022-09-24T06:37:31.340Z,11.91
2022-09-24T06:38:31.452Z,11.94
2022-09-24T06:39:31.317Z,11.91
2022-09-24T06:40:36.250Z,11.94
2022-09-24T06:41:32.293Z,11.95
2022-09-24T06:42:31.284Z,11.98
2022-09-24T06:43:31.278Z,11.99
2022-09-24T06:44:31.263Z,12.01
2022-09-24T06:45:31.269Z,12.02
2022-09-24T06:46:31.323Z,12.04
2022-09-24T06:47:31.233Z,12.05
2022-09-24T06:48:31.270Z,12.07
2022-09-24T06:49:34.066Z,12.07
2022-09-24T06:50:31.194Z,12.10
2022-09-24T06:51:31.176Z,12.10
2022-09-24T06:52:31.175Z,12.12
2022-09-24T06:53:31.211Z,12.12
2022-09-24T06:54:31.144Z,12.14
2022-09-24T06:55:31.144Z,12.14
2022-09-24T06:56:31.133Z,12.17
2022-09-24T06:57:31.137Z,12.19
2022-09-24T06:58:31.407Z,12.20
2022-09-24T06:59:31.095Z,12.23
2022-09-24T07:00:31.084Z,12.24
2022-09-24T07:01:31.280Z,12.28
2022-09-24T07:02:31.186Z,12.29
2022-09-24T07:03:31.067Z,12.32
2022-09-24T07:04:31.050Z,12.34
2022-09-24T07:05:31.029Z,12.38
2022-09-24T07:06:31.056Z,12.39
2022-09-24T07:07:31.009Z,12.42
2022-09-24T07:08:31.020Z,12.47
2022-09-24T07:09:31.005Z,12.49
2022-09-24T07:10:30.979Z,12.53
2022-09-24T07:11:30.990Z,12.56
2022-09-24T07:12:30.949Z,12.60
2022-09-24T07:13:30.969Z,12.64
2022-09-24T07:14:30.950Z,12.68
2022-09-24T07:15:30.929Z,12.71
2022-09-24T07:16:30.976Z,12.75
2022-09-24T07:17:33.868Z,12.78
2022-09-24T07:18:30.905Z,12.83
2022-09-24T07:19:30.912Z,12.89
2022-09-24T07:20:30.912Z,12.96
2022-09-24T07:21:30.852Z,13.03
2022-09-24T07:22:30.854Z,13.05
2022-09-24T07:23:30.862Z,13.11
2022-09-24T07:24:30.832Z,13.12
2022-09-24T07:25:30.844Z,13.26
2022-09-24T07:26:30.823Z,13.28
2022-09-24T07:27:30.884Z,13.36
2022-09-24T07:28:30.793Z,13.42
2022-09-24T07:29:30.925Z,13.48
2022-09-24T07:30:30.761Z,13.49
2022-09-24T07:31:31.032Z,13.46
2022-09-24T07:32:30.743Z,13.46
2022-09-24T07:33:30.778Z,13.44
2022-09-24T07:34:30.717Z,13.44
2022-09-24T07:35:30.759Z,13.46
2022-09-24T07:36:30.707Z,13.51
2022-09-24T07:37:30.758Z,13.46
2022-09-24T07:38:30.688Z,13.39
2022-09-24T07:39:30.664Z,13.38
2022-09-24T07:40:30.681Z,13.41
2022-09-24T07:41:30.638Z,13.48
2022-09-24T07:42:30.638Z,13.49
2022-09-24T07:43:30.648Z,13.54
2022-09-24T07:44:30.617Z,13.54
2022-09-24T07:45:30.632Z,13.57
2022-09-24T07:46:30.658Z,13.59
2022-09-24T07:47:30.591Z,13.62
2022-09-24T07:48:30.578Z,13.62
2022-09-24T07:49:30.559Z,13.59
2022-09-24T07:50:30.539Z,13.57
2022-09-24T07:51:30.547Z,13.59
2022-09-24T07:52:30.521Z,13.57
2022-09-24T07:53:30.523Z,13.57
2022-09-24T07:54:30.500Z,13.59
2022-09-24T07:55:30.482Z,13.59
2022-09-24T07:56:30.482Z,13.59
2022-09-24T07:57:30.477Z,13.60
2022-09-24T07:58:30.473Z,13.64
2022-09-24T07:59:30.455Z,13.67
2022-09-24T08:00:30.433Z,13.64
2022-09-24T08:01:30.553Z,13.63
2022-09-24T08:02:30.420Z,13.57
2022-09-24T08:03:30.466Z,13.57
2022-09-24T08:04:30.405Z,13.57
2022-09-24T08:05:30.385Z,13.62
2022-09-24T08:06:34.489Z,13.64
2022-09-24T08:07:31.354Z,13.67
2022-09-24T08:08:30.395Z,13.67
2022-09-24T08:09:30.325Z,13.69
2022-09-24T08:10:30.331Z,13.73
2022-09-24T08:11:30.319Z,13.70
2022-09-24T08:12:30.305Z,13.70
2022-09-24T08:13:30.326Z,13.70
2022-09-24T08:14:30.288Z,13.70
2022-09-24T08:15:30.267Z,13.73
2022-09-24T08:16:30.315Z,13.77
2022-09-24T08:17:30.248Z,13.82
2022-09-24T08:18:30.274Z,13.88
2022-09-24T08:19:30.226Z,13.91
2022-09-24T08:20:30.219Z,13.95
2022-09-24T08:21:30.198Z,13.97
2022-09-24T08:22:30.199Z,14.00
2022-09-24T08:23:30.210Z,14.02
2022-09-24T08:24:30.180Z,14.04
2022-09-24T08:25:30.160Z,14.04
2022-09-24T08:26:30.161Z,14.02
2022-09-24T08:27:30.152Z,13.96
2022-09-24T08:28:30.151Z,13.92
2022-09-24T08:29:30.132Z,13.95
2022-09-24T08:30:30.111Z,13.92
2022-09-24T08:31:30.133Z,13.92
2022-09-24T08:32:30.095Z,13.91
2022-09-24T08:33:30.092Z,13.89
2022-09-24T08:34:30.064Z,13.91
2022-09-24T08:35:30.052Z,13.92
2022-09-24T08:36:30.040Z,13.92
2022-09-24T08:37:30.033Z,13.91
2022-09-24T08:38:30.033Z,13.89
2022-09-24T08:39:30.013Z,13.89
2022-09-24T08:40:30.066Z,13.85
2022-09-24T08:41:29.996Z,13.85
2022-09-24T08:42:29.975Z,13.87
2022-09-24T08:43:29.975Z,13.88
2022-09-24T08:44:29.967Z,13.91
2022-09-24T08:45:29.938Z,13.92
2022-09-24T08:46:30.043Z,13.92
2022-09-24T08:47:29.926Z,13.92
2022-09-24T08:48:29.916Z,13.89
2022-09-24T08:49:29.896Z,13.91
2022-09-24T08:50:29.888Z,13.89
2022-09-24T08:51:33.333Z,13.91
2022-09-24T08:52:29.879Z,13.92
2022-09-24T08:53:29.867Z,13.95
2022-09-24T08:54:29.849Z,13.99
2022-09-24T08:55:29.841Z,14.03
2022-09-24T08:56:29.832Z,14.03
2022-09-24T08:57:29.809Z,14.06
2022-09-24T08:58:29.825Z,14.10
2022-09-24T08:59:29.791Z,14.14
2022-09-24T09:00:29.779Z,14.18
2022-09-24T09:01:29.833Z,14.29
2022-09-24T09:02:29.831Z,14.40
2022-09-24T09:03:29.756Z,14.46
2022-09-24T09:04:29.750Z,14.45
2022-09-24T09:05:29.724Z,14.46
2022-09-24T09:06:29.723Z,14.47
2022-09-24T09:07:29.723Z,14.47
2022-09-24T09:08:50.564Z,14.60
2022-09-24T09:09:30.680Z,14.73
2022-09-24T09:10:29.704Z,14.83
2022-09-24T09:11:29.666Z,14.86
2022-09-24T09:12:29.664Z,14.84
2022-09-24T09:13:29.754Z,14.88
2022-09-24T09:14:31.576Z,15.06
2022-09-24T09:15:29.655Z,15.25
2022-09-24T09:16:29.658Z,15.34
2022-09-24T09:17:29.617Z,15.44
2022-09-24T09:18:29.588Z,15.49
2022-09-24T09:19:29.577Z,15.46
2022-09-24T09:20:29.616Z,15.38
2022-09-24T09:21:29.554Z,15.34
2022-09-24T09:22:29.578Z,15.31
2022-09-24T09:23:29.538Z,15.23
2022-09-24T09:24:29.519Z,15.16
2022-09-24T09:25:29.709Z,15.14
2022-09-24T09:26:29.545Z,15.17
2022-09-24T09:27:29.490Z,15.32
2022-09-24T09:28:29.503Z,15.53
2022-09-24T09:29:29.490Z,15.60
2022-09-24T09:30:29.461Z,15.82
2022-09-24T09:31:29.642Z,15.96
2022-09-24T09:32:29.442Z,16.17
2022-09-24T09:33:29.553Z,16.34
2022-09-24T09:34:29.413Z,16.49
2022-09-24T09:35:29.431Z,16.48
2022-09-24T09:36:29.393Z,16.33
2022-09-24T09:37:29.393Z,16.17
2022-09-24T09:38:29.392Z,16.12
2022-09-24T09:39:29.386Z,15.94
2022-09-24T09:40:32.171Z,15.75
2022-09-24T09:41:29.339Z,15.67
2022-09-24T09:42:29.334Z,15.71
2022-09-24T09:43:29.359Z,15.75
2022-09-24T09:44:29.319Z,15.75
2022-09-24T09:45:29.298Z,15.69
2022-09-24T09:46:29.314Z,15.74
2022-09-24T09:47:29.307Z,15.72
2022-09-24T09:48:29.271Z,15.64
2022-09-24T09:49:29.317Z,15.56
2022-09-24T09:50:29.253Z,15.50
2022-09-24T09:51:29.229Z,15.49
2022-09-24T09:52:29.240Z,15.43
2022-09-24T09:53:29.217Z,15.36
2022-09-24T09:54:29.212Z,15.31
2022-09-24T09:55:29.200Z,15.25
2022-09-24T09:56:29.193Z,15.25
2022-09-24T09:57:29.209Z,15.27
2022-09-24T09:58:29.161Z,15.35
2022-09-24T09:59:29.965Z,15.43
2022-09-24T10:00:29.140Z,15.47
2022-09-24T10:01:29.124Z,15.56
2022-09-24T10:02:29.273Z,15.57
2022-09-24T10:03:29.194Z,15.54
2022-09-24T10:04:29.095Z,15.53
2022-09-24T10:05:29.095Z,15.51
2022-09-24T10:06:29.075Z,15.50
2022-09-24T10:07:29.176Z,15.51
2022-09-24T10:08:29.055Z,15.56
2022-09-24T10:09:29.037Z,15.54
2022-09-24T10:10:29.035Z,15.51
2022-09-24T10:11:29.059Z,15.47
2022-09-24T10:12:29.009Z,15.46
2022-09-24T10:13:28.996Z,15.50
2022-09-24T10:14:28.989Z,15.50
2022-09-24T10:15:28.968Z,15.50
2022-09-24T10:16:28.986Z,15.50
2022-09-24T10:17:28.961Z,15.59
2022-09-24T10:18:28.938Z,15.56
2022-09-24T10:19:28.929Z,15.59
2022-09-24T10:20:28.931Z,15.62
2022-09-24T10:21:28.910Z,15.71
2022-09-24T10:22:28.920Z,15.76
2022-09-24T10:23:28.890Z,15.82
2022-09-24T10:24:28.881Z,15.89
2022-09-24T10:25:28.883Z,15.96
2022-09-24T10:26:28.862Z,16.12
2022-09-24T10:27:28.869Z,16.15
2022-09-24T10:28:28.839Z,16.17
2022-09-24T10:29:28.832Z,16.09
2022-09-24T10:30:28.813Z,16.09
2022-09-24T10:31:28.861Z,16.12
2022-09-24T10:32:28.806Z,16.12
2022-09-24T10:33:28.783Z,16.15
2022-09-24T10:34:28.775Z,16.15
2022-09-24T10:35:28.767Z,16.12
2022-09-24T10:36:28.753Z,16.14
2022-09-24T10:37:28.816Z,16.21
2022-09-24T10:38:28.734Z,16.20
2022-09-24T10:39:28.724Z,16.20
2022-09-24T10:40:28.783Z,16.14
2022-09-24T10:41:28.697Z,16.08
2022-09-24T10:42:28.707Z,16.08
2022-09-24T10:43:28.678Z,16.07
2022-09-24T10:44:28.670Z,16.14
2022-09-24T10:45:28.650Z,16.21
2022-09-24T10:46:28.693Z,16.25
2022-09-24T10:47:28.650Z,16.28
2022-09-24T10:48:28.621Z,16.30
2022-09-24T10:49:28.618Z,16.25
2022-09-24T10:50:28.612Z,16.25
2022-09-24T10:51:29.669Z,16.25
2022-09-24T10:52:28.600Z,16.25
2022-09-24T10:53:28.571Z,16.24
2022-09-24T10:54:28.551Z,16.27
2022-09-24T10:55:28.553Z,16.27
2022-09-24T10:56:28.532Z,16.24
2022-09-24T10:57:28.533Z,16.24
2022-09-24T10:58:28.512Z,16.24
2022-09-24T10:59:28.508Z,16.28
2022-09-24T11:00:28.484Z,16.30
2022-09-24T11:01:28.557Z,16.35
2022-09-24T11:02:28.542Z,16.39
2022-09-24T11:03:28.465Z,16.45
2022-09-24T11:04:28.446Z,16.43
2022-09-24T11:05:28.447Z,16.48
2022-09-24T11:06:28.427Z,16.52
2022-09-24T11:07:28.457Z,16.57
2022-09-24T11:08:28.408Z,16.60
2022-09-24T11:09:28.397Z,16.57
2022-09-24T11:10:28.387Z,16.49
2022-09-24T11:11:28.379Z,16.46
2022-09-24T11:12:28.368Z,16.42
2022-09-24T11:13:28.378Z,16.39
2022-09-24T11:14:28.339Z,16.38
2022-09-24T11:15:28.330Z,16.35
2022-09-24T11:16:28.359Z,16.38
2022-09-24T11:17:28.331Z,16.49
2022-09-24T11:18:28.298Z,16.53
2022-09-24T11:19:28.290Z,16.58
2022-09-24T11:20:28.351Z,16.64
2022-09-24T11:21:28.283Z,16.63
2022-09-24T11:22:28.259Z,16.66
2022-09-24T11:23:28.253Z,16.63
2022-09-24T11:24:28.232Z,16.61
2022-09-24T11:25:28.253Z,16.58
2022-09-24T11:26:28.225Z,16.52
2022-09-24T11:27:28.207Z,16.50
2022-09-24T11:28:28.295Z,16.52
2022-09-24T11:29:31.082Z,16.56
2022-09-24T11:30:29.165Z,16.56
2022-09-24T11:31:28.223Z,16.49
2022-09-24T11:32:28.147Z,16.49
2022-09-24T11:33:28.142Z,16.50
2022-09-24T11:34:28.127Z,16.48
2022-09-24T11:35:28.116Z,16.48
2022-09-24T11:36:28.210Z,16.50
2022-09-24T11:37:28.097Z,16.52
2022-09-24T11:38:28.139Z,16.50
2022-09-24T11:39:28.077Z,16.53
2022-09-24T11:40:28.125Z,16.50
2022-09-24T11:41:28.061Z,16.50
2022-09-24T11:42:28.050Z,16.48
2022-09-24T11:43:28.039Z,16.50
2022-09-24T11:44:28.019Z,16.53
2022-09-24T11:45:28.015Z,16.50
2022-09-24T11:46:28.075Z,16.49
2022-09-24T11:47:28.010Z,16.45
2022-09-24T11:48:27.971Z,16.42
2022-09-24T11:49:27.971Z,16.38
2022-09-24T11:50:27.951Z,16.38
2022-09-24T11:51:27.952Z,16.33
2022-09-24T11:52:27.951Z,16.31
2022-09-24T11:53:27.923Z,16.30
2022-09-24T11:54:27.904Z,16.31
2022-09-24T11:55:27.893Z,16.31
2022-09-24T11:56:27.893Z,16.33
2022-09-24T11:57:27.885Z,16.34
2022-09-24T11:58:27.866Z,16.34
2022-09-24T11:59:27.853Z,16.35
2022-09-24T12:00:27.844Z,16.35
2022-09-24T12:01:27.901Z,16.38
2022-09-24T12:02:27.895Z,16.39
2022-09-24T12:03:27.892Z,16.41
2022-09-24T12:04:27.796Z,16.41
2022-09-24T12:05:27.796Z,16.41
2022-09-24T12:06:27.787Z,16.39
2022-09-24T12:07:27.767Z,16.39
2022-09-24T12:08:27.815Z,16.38
2022-09-24T12:09:27.746Z,16.38
2022-09-24T12:10:27.748Z,16.35
2022-09-24T12:11:27.728Z,16.38
2022-09-24T12:12:27.718Z,16.38
2022-09-24T12:13:27.714Z,16.34
2022-09-24T12:14:27.709Z,16.34
2022-09-24T12:15:27.711Z,16.33
2022-09-24T12:16:27.731Z,16.34
2022-09-24T12:17:27.663Z,16.31
2022-09-24T12:18:27.653Z,16.31
2022-09-24T12:19:27.642Z,16.31
2022-09-24T12:20:27.653Z,16.30
2022-09-24T12:21:27.611Z,16.30
2022-09-24T12:22:27.615Z,16.30
2022-09-24T12:23:27.601Z,16.30
2022-09-24T12:24:27.584Z,16.31
2022-09-24T12:25:27.579Z,16.31
2022-09-24T12:26:27.844Z,16.31
2022-09-24T12:27:27.543Z,16.31
2022-09-24T12:28:27.553Z,16.30
2022-09-24T12:29:27.534Z,16.30
2022-09-24T12:30:27.527Z,16.30
2022-09-24T12:31:27.634Z,16.34
2022-09-24T12:32:27.506Z,16.38
2022-09-24T12:33:27.496Z,16.39
2022-09-24T12:34:27.495Z,16.39
2022-09-24T12:35:27.496Z,16.42
2022-09-24T12:36:27.468Z,16.42
2022-09-24T12:37:27.447Z,16.42
2022-09-24T12:38:27.454Z,16.46
2022-09-24T12:39:27.430Z,16.46
2022-09-24T12:40:27.485Z,16.46
2022-09-24T12:41:27.417Z,16.46
2022-09-24T12:42:27.400Z,16.46
2022-09-24T12:43:27.388Z,16.45
2022-09-24T12:44:27.379Z,16.48
2022-09-24T12:45:27.361Z,16.48
2022-09-24T12:46:27.442Z,16.49
2022-09-24T12:47:27.355Z,16.50
2022-09-24T12:48:27.341Z,16.52
2022-09-24T12:49:27.324Z,16.53
2022-09-24T12:50:27.360Z,16.52
2022-09-24T12:51:27.312Z,16.50
2022-09-24T12:52:27.301Z,16.56